Time;durP1;ratioP1;P1;durP2;ratioP2;P2;SDS_P1;SDS_P2;PMS_P1;PMS_P2;Temp;Humidity;BMP_temperature;BMP_pressure;BME280_temperature;BME280_humidity;BME280_pressure;Samples;Min_cycle;Max_cycle;Signal;HPM_P1;HPM_P2
2023/08/17 00:00:21;;;;;;;14.75;7.80;;;;;;;25.81;49.50;100803.42;126900;1098;104131;-80
2023/08/17 00:03:13;;;;;;;16.13;7.90;;;;;;;25.78;49.63;100795.42;127367;1098;104237;-80
2023/08/17 00:05:44;;;;;;;12.57;6.67;;;;;;;25.80;49.75;100798.08;127054;1098;102105;-80
2023/08/17 00:08:17;;;;;;;14.93;7.57;;;;;;;25.79;49.62;100805.27;127036;1098;101825;-80
2023/08/17 00:10:48;;;;;;;16.07;7.00;;;;;;;25.78;50.36;100794.55;126368;1099;104207;-79
2023/08/17 00:13:19;;;;;;;21.23;7.30;;;;;;;25.76;50.17;100799.96;126170;1099;101910;-80
2023/08/17 00:15:51;;;;;;;14.10;7.30;;;;;;;25.72;50.09;100800.94;125559;1099;102389;-81
2023/08/17 00:18:22;;;;;;;13.50;7.20;;;;;;;25.67;50.64;100793.92;125537;1099;104065;-81
2023/08/17 00:20:53;;;;;;;13.27;7.07;;;;;;;25.62;50.71;100794.02;125538;1099;104185;-80
2023/08/17 00:23:25;;;;;;;14.20;6.70;;;;;;;25.60;50.40;100795.83;125526;1098;104194;-80
2023/08/17 00:25:58;;;;;;;13.70;7.10;;;;;;;25.57;50.52;100802.18;125518;1099;104179;-80
2023/08/17 00:28:30;;;;;;;12.60;7.13;;;;;;;25.56;50.97;100802.21;125556;1099;104261;-81
2023/08/17 00:31:02;;;;;;;11.17;6.93;;;;;;;25.52;50.97;100796.00;125467;1099;102211;-80
2023/08/17 00:33:34;;;;;;;13.93;7.17;;;;;;;25.51;51.20;100801.41;125187;1099;101785;-80
2023/08/17 00:36:06;;;;;;;12.53;6.90;;;;;;;25.48;50.89;100797.88;125131;1097;104629;-80
2023/08/17 00:38:38;;;;;;;14.47;6.90;;;;;;;25.46;51.32;100802.41;125223;1099;104207;-81
2023/08/17 00:41:09;;;;;;;10.20;6.50;;;;;;;25.43;51.41;100804.25;125224;1099;104226;-80
2023/08/17 00:43:40;;;;;;;14.50;7.30;;;;;;;25.36;51.33;100798.13;124762;1099;104303;-82
2023/08/17 00:46:12;;;;;;;16.13;7.67;;;;;;;25.32;51.46;100793.73;125500;1098;102537;-80
2023/08/17 00:48:44;;;;;;;13.30;7.40;;;;;;;25.28;51.82;100792.02;125895;1099;102116;-80
2023/08/17 00:51:20;;;;;;;14.50;7.60;;;;;;;25.25;51.62;100789.39;125540;1099;102084;-81
2023/08/17 00:53:54;;;;;;;11.83;7.03;;;;;;;25.22;51.68;100798.38;125523;1099;104233;-80
2023/08/17 00:56:25;;;;;;;11.80;7.17;;;;;;;25.20;51.88;100791.30;125548;1099;104198;-80
2023/08/17 00:58:57;;;;;;;13.63;7.10;;;;;;;25.18;51.95;100794.02;124877;1099;104233;-80
2023/08/17 01:01:28;;;;;;;15.83;7.73;;;;;;;25.17;51.85;100794.04;125545;1099;104303;-80
2023/08/17 01:03:59;;;;;;;15.57;7.73;;;;;;;25.16;51.92;100794.94;124980;1099;104277;-80
2023/08/17 01:06:31;;;;;;;15.43;7.10;;;;;;;25.14;52.41;100796.78;126357;1098;104191;-80
2023/08/17 01:09:03;;;;;;;14.07;7.30;;;;;;;25.11;52.49;100795.91;125357;1099;101925;-80
2023/08/17 01:11:39;;;;;;;17.73;7.97;;;;;;;25.09;52.68;100795.06;125546;1099;102545;-79
2023/08/17 01:14:17;;;;;;;15.60;7.30;;;;;;;25.06;51.99;100795.12;125325;1099;101922;-78
2023/08/17 01:16:52;;;;;;;14.73;7.73;;;;;;;25.03;52.77;100789.81;124819;1099;104204;-79
2023/08/17 01:19:28;;;;;;;12.80;7.43;;;;;;;25.00;52.73;100792.56;125264;1098;104249;-80
2023/08/17 01:22:04;;;;;;;13.93;7.17;;;;;;;24.97;52.89;100784.56;125342;1099;104325;-80
2023/08/17 01:24:36;;;;;;;14.00;7.73;;;;;;;24.95;53.04;100791.77;124898;1099;102089;-80
2023/08/17 01:27:09;;;;;;;14.27;7.50;;;;;;;24.91;52.88;100790.05;124946;1099;104236;-79
2023/08/17 01:29:41;;;;;;;12.83;7.30;;;;;;;24.85;52.69;100784.80;125451;1099;102038;-79
2023/08/17 01:32:22;;;;;;;15.60;7.67;;;;;;;24.81;53.19;100780.39;125432;1098;104159;-80
2023/08/17 01:35:02;;;;;;;13.97;7.60;;;;;;;24.76;53.21;100783.16;125414;1099;102348;-79
2023/08/17 01:37:38;;;;;;;17.10;7.63;;;;;;;24.69;53.41;100784.20;125395;1099;104246;-79
2023/08/17 01:40:13;;;;;;;13.17;7.13;;;;;;;24.65;53.43;100777.11;125613;1099;101878;-79
2023/08/17 01:42:45;;;;;;;12.87;7.37;;;;;;;24.59;53.23;100778.12;126062;1099;102240;-79
2023/08/17 01:45:17;;;;;;;16.77;8.27;;;;;;;24.54;53.35;100779.95;125395;1099;101922;-78
2023/08/17 01:47:50;;;;;;;14.63;8.20;;;;;;;24.48;53.41;100780.06;125272;1099;104146;-78
2023/08/17 01:50:21;;;;;;;11.57;7.13;;;;;;;24.40;54.01;100774.83;124705;1099;104328;-78
2023/08/17 01:52:57;;;;;;;13.77;7.57;;;;;;;24.31;53.88;100778.57;125347;1099;102131;-78
2023/08/17 01:55:28;;;;;;;16.55;8.65;;;;;;;24.26;54.17;100776.86;125353;1099;101827;-78
2023/08/17 01:58:00;;;;;;;12.50;7.30;;;;;;;24.25;54.39;100777.77;125335;1098;104092;-78
2023/08/17 02:00:31;;;;;;;12.03;6.90;;;;;;;24.23;54.41;100776.02;124718;1099;101990;-78
2023/08/17 02:03:02;;;;;;;15.87;7.53;;;;;;;24.26;54.53;100779.55;125402;1099;104191;-78
2023/08/17 02:05:34;;;;;;;17.53;7.60;;;;;;;24.27;54.37;100778.64;125415;1099;104251;-78
2023/08/17 02:08:06;;;;;;;17.63;7.43;;;;;;;24.27;54.63;100782.20;124779;1099;103330;-79
2023/08/17 02:10:37;;;;;;;14.27;7.57;;;;;;;24.21;54.63;100771.58;125182;1099;102050;-78
2023/08/17 02:13:08;;;;;;;13.27;7.13;;;;;;;24.20;55.02;100775.19;126276;1099;102015;-78
2023/08/17 02:15:42;;;;;;;14.63;8.10;;;;;;;24.17;55.21;100775.23;124627;1099;104267;-78
2023/08/17 02:18:11;;;;;;;;;;;;;;;24.12;54.81;100767.27;125378;1099;101881;-79
2023/08/17 02:20:43;;;;;;;14.60;7.27;;;;;;;24.12;55.24;100771.72;125141;1099;104166;-78
2023/08/17 02:23:16;;;;;;;14.03;7.53;;;;;;;24.11;55.13;100772.66;125149;1099;104236;-78
2023/08/17 02:25:47;;;;;;;16.13;7.30;;;;;;;24.10;55.33;100770.88;125227;1099;104162;-78
2023/08/17 02:28:18;;;;;;;13.67;7.40;;;;;;;24.09;55.40;100774.45;125188;1099;104220;-78
2023/08/17 02:30:50;;;;;;;13.43;7.53;;;;;;;24.07;55.48;100778.96;125177;1099;104233;-80
2023/08/17 02:33:22;;;;;;;12.10;7.10;;;;;;;24.03;55.71;100773.65;125184;1098;101910;-78
2023/08/17 02:35:54;;;;;;;14.63;7.33;;;;;;;24.02;55.66;100779.91;125171;1099;104328;-78
2023/08/17 02:38:25;;;;;;;15.60;7.23;;;;;;;24.01;55.53;100774.57;125119;1099;101892;-78
2023/08/17 02:40:57;;;;;;;14.83;6.97;;;;;;;23.98;55.63;100783.56;125114;1099;103014;-78
2023/08/17 02:43:28;;;;;;;13.87;6.80;;;;;;;23.95;55.91;100780.94;125333;1099;104214;-79
2023/08/17 02:46:00;;;;;;;17.07;7.57;;;;;;;23.91;55.99;100779.20;125409;1098;104293;-79
2023/08/17 02:48:32;;;;;;;12.80;7.07;;;;;;;23.84;55.79;100782.86;125277;1098;102052;-78
2023/08/17 02:51:04;;;;;;;14.93;7.00;;;;;;;23.83;56.12;100787.31;125413;1099;104261;-79
2023/08/17 02:53:36;;;;;;;14.37;7.13;;;;;;;23.83;56.01;100794.48;126381;1098;104160;-79
2023/08/17 02:56:10;;;;;;;14.63;7.43;;;;;;;23.84;55.87;100789.13;125418;1099;101887;-79
2023/08/17 02:58:41;;;;;;;14.60;7.20;;;;;;;23.85;55.72;100788.20;125358;1099;101891;-78
2023/08/17 03:01:13;;;;;;;12.37;6.63;;;;;;;23.78;55.90;100790.95;125322;1099;104345;-78
2023/08/17 03:03:44;;;;;;;14.37;6.80;;;;;;;23.68;56.01;100785.76;124980;1098;104340;-78
2023/08/17 03:06:16;;;;;;;14.63;6.67;;;;;;;23.67;56.26;100793.81;125221;1099;104169;-78
2023/08/17 03:08:48;;;;;;;16.10;6.80;;;;;;;23.61;56.28;100789.41;125164;1099;104169;-78
2023/08/17 03:11:20;;;;;;;11.83;7.30;;;;;;;23.54;56.12;100789.52;125214;1099;104229;-78
2023/08/17 03:13:54;;;;;;;17.33;7.80;;;;;;;23.45;56.06;100799.45;125258;1099;104239;-78
2023/08/17 03:16:25;;;;;;;14.60;8.00;;;;;;;23.38;56.12;100797.75;124868;1099;104261;-78
2023/08/17 03:18:56;;;;;;;14.70;7.87;;;;;;;23.32;56.44;100801.38;125322;1099;104192;-78
2023/08/17 03:21:28;;;;;;;12.70;7.00;;;;;;;23.21;56.54;100803.30;124876;1099;104233;-79
2023/08/17 03:23:59;;;;;;;17.00;7.97;;;;;;;23.10;56.73;100797.19;125344;1099;101772;-78
2023/08/17 03:26:31;;;;;;;15.40;7.50;;;;;;;22.98;56.96;100801.75;124694;1099;102001;-78
2023/08/17 03:29:02;;;;;;;26.67;8.83;;;;;;;22.92;57.72;100798.23;125086;1099;104165;-78
2023/08/17 03:31:34;;;;;;;11.67;7.43;;;;;;;22.85;57.77;100796.55;124636;1099;104166;-78
2023/08/17 03:34:06;;;;;;;16.60;7.67;;;;;;;22.81;58.00;100792.99;124853;1099;102318;-78
2023/08/17 03:36:41;;;;;;;15.83;8.30;;;;;;;22.80;58.04;100791.24;125119;1099;104166;-77
2023/08/17 03:39:12;;;;;;;12.97;7.83;;;;;;;22.80;58.59;100800.14;125251;1099;102003;-78
2023/08/17 03:41:44;;;;;;;17.57;7.90;;;;;;;22.75;58.43;100788.61;125209;1099;104195;-78
2023/08/17 03:44:16;;;;;;;13.15;7.10;;;;;;;22.74;58.51;100791.30;125302;1099;104206;-81
2023/08/17 03:46:47;;;;;;;13.73;7.17;;;;;;;22.70;58.46;100787.75;125502;1099;104076;-80
2023/08/17 03:49:19;;;;;;;12.67;7.37;;;;;;;22.71;59.50;100794.00;125598;1099;104271;-80
2023/08/17 03:51:50;;;;;;;13.90;7.50;;;;;;;22.69;59.58;100794.02;124871;1099;104366;-81
2023/08/17 03:54:21;;;;;;;14.67;8.00;;;;;;;22.69;59.61;100787.77;125568;1099;101941;-81
2023/08/17 03:56:53;;;;;;;18.50;8.63;;;;;;;22.67;59.41;100786.90;125513;1099;104229;-79
2023/08/17 03:59:24;;;;;;;16.23;8.20;;;;;;;22.68;60.08;100791.36;125522;1099;104219;-79
2023/08/17 04:01:56;;;;;;;17.53;9.07;;;;;;;22.69;60.35;100788.67;125536;1099;104201;-79
2023/08/17 04:04:27;;;;;;;14.57;8.37;;;;;;;22.70;60.16;100797.57;125580;1099;104082;-81
2023/08/17 04:06:59;;;;;;;17.50;8.40;;;;;;;22.68;60.27;100797.58;125462;1099;104319;-80
2023/08/17 04:09:33;;;;;;;16.67;8.27;;;;;;;22.69;60.86;100798.45;125520;1099;104166;-82
2023/08/17 04:12:05;;;;;;;17.37;9.10;;;;;;;22.68;60.39;100796.70;125518;1099;104300;-82
2023/08/17 04:14:38;;;;;;;20.47;9.57;;;;;;;22.66;60.81;100802.07;125559;1099;102005;-82
2023/08/17 04:17:10;;;;;;;16.67;8.63;;;;;;;22.64;60.90;100802.98;125515;1099;104172;-83
2023/08/17 04:19:41;;;;;;;17.83;9.30;;;;;;;22.62;61.26;100805.66;125486;1099;101981;-85
2023/08/17 04:22:13;;;;;;;18.53;8.90;;;;;;;22.60;60.85;100788.75;125515;1099;101935;-86
2023/08/17 04:24:44;;;;;;;20.50;8.90;;;;;;;22.58;61.04;100799.47;125608;1098;104229;-83
2023/08/17 04:27:16;;;;;;;18.57;9.43;;;;;;;22.60;61.37;100799.45;125506;1099;104271;-83
2023/08/17 04:29:52;;;;;;;18.20;9.07;;;;;;;22.60;62.26;100802.13;125600;1099;102027;-83
2023/08/17 04:32:27;;;;;;;15.80;8.70;;;;;;;22.62;62.18;100800.31;125490;1099;102176;-84
2023/08/17 04:35:01;;;;;;;15.63;8.87;;;;;;;22.64;61.87;100803.88;125950;1098;104216;-83
2023/08/17 04:37:32;;;;;;;17.53;8.20;;;;;;;22.68;61.94;100807.41;125534;1099;104176;-83
2023/08/17 04:40:05;;;;;;;15.13;8.90;;;;;;;22.71;62.66;100804.70;126524;1098;102099;-83
2023/08/17 04:42:37;;;;;;;17.87;8.73;;;;;;;22.76;62.33;100809.09;124920;1099;104201;-87
2023/08/17 04:45:11;;;;;;;18.13;8.60;;;;;;;22.80;62.33;100809.97;124950;1099;104300;-83
2023/08/17 04:47:48;;;;;;;16.53;8.10;;;;;;;22.87;62.52;100803.63;125471;1099;104188;-84
2023/08/17 04:50:24;;;;;;;18.63;8.13;;;;;;;22.95;62.55;100815.16;126108;1099;104173;-84
2023/08/17 04:52:58;;;;;;;16.23;7.73;;;;;;;23.01;62.04;100807.97;125583;1099;102686;-84
2023/08/17 04:55:32;;;;;;;16.95;7.95;;;;;;;23.08;62.04;100813.27;125543;1099;104185;-83
2023/08/17 04:58:04;;;;;;;16.17;8.20;;;;;;;23.14;61.77;100812.33;125641;1099;101842;-83
2023/08/17 05:00:35;;;;;;;21.00;8.23;;;;;;;23.18;61.73;100800.66;125608;1098;104208;-84
2023/08/17 05:03:07;;;;;;;16.57;8.07;;;;;;;23.23;62.14;100801.48;126115;1099;101824;-83
2023/08/17 05:05:44;;;;;;;16.90;7.50;;;;;;;23.30;61.82;100803.19;127227;1098;101830;-89
2023/08/17 05:08:25;;;;;;;16.07;7.70;;;;;;;23.37;61.68;100803.12;127425;1099;101950;-87
2023/08/17 05:11:08;;;;;;;;;;;;;;;;;;;;;
2023/08/17 05:14:07;;;;;;;17.07;7.80;;;;;;;23.48;61.93;100807.45;126257;1099;104385;-83
2023/08/17 05:16:53;;;;;;;14.97;7.93;;;;;;;23.53;61.44;100796.67;126162;1099;102119;-88
2023/08/17 05:19:38;;;;;;;18.73;8.00;;;;;;;23.59;61.84;100793.92;126097;1099;102036;-81
2023/08/17 05:22:23;;;;;;;15.97;7.60;;;;;;;23.65;61.58;100791.16;126749;1098;102400;-87
2023/08/17 05:24:58;;;;;;;19.67;8.17;;;;;;;23.73;61.70;100792.82;126778;1099;101905;-91
2023/08/17 05:27:34;;;;;;;22.27;7.90;;;;;;;23.79;61.44;100790.93;126322;1099;101693;-85
2023/08/17 05:30:11;;;;;;;18.67;7.60;;;;;;;23.88;61.58;100794.44;125776;1099;101945;-91
2023/08/17 05:33:02;;;;;;;17.97;7.40;;;;;;;23.95;61.30;100788.97;127513;1098;101218;-83
2023/08/17 05:35:55;;;;;;;15.67;7.87;;;;;;;24.02;61.02;100785.27;126575;1099;117424;-87
2023/08/17 05:38:47;;;;;;;18.87;8.03;;;;;;;24.09;60.78;100775.36;126270;1099;101687;-89
2023/08/17 05:41:42;;;;;;;17.40;7.50;;;;;;;24.16;61.06;100778.81;126426;1099;101745;-86
2023/08/17 05:44:26;;;;;;;17.77;6.80;;;;;;;24.24;60.85;100774.20;127024;1098;101801;-81
2023/08/17 05:47:08;;;;;;;12.53;6.90;;;;;;;24.30;60.52;100770.55;126748;1098;104224;-83
2023/08/17 05:49:52;;;;;;;13.90;6.13;;;;;;;24.38;60.49;100768.61;127520;1099;102437;-83
2023/08/17 05:52:31;;;;;;;11.17;5.90;;;;;;;24.46;60.46;100765.80;127615;1098;101818;-78
2023/08/17 05:55:11;;;;;;;12.67;5.57;;;;;;;24.55;60.14;100765.64;125539;1099;104168;-78
2023/08/17 05:57:51;;;;;;;12.90;5.97;;;;;;;24.63;59.62;100758.36;126173;1098;102394;-78
2023/08/17 06:00:28;;;;;;;16.73;5.77;;;;;;;24.74;59.63;100764.44;124887;1099;104195;-82
2023/08/17 06:03:20;;;;;;;10.30;6.07;;;;;;;24.84;59.75;100753.50;125811;1099;104267;-82
2023/08/17 06:06:05;;;;;;;11.30;5.57;;;;;;;24.95;59.59;100759.56;127039;1098;102311;-84
2023/08/17 06:08:45;;;;;;;13.53;5.37;;;;;;;25.05;59.66;100755.77;125675;1102;102069;-86
2023/08/17 06:11:18;;;;;;;13.00;5.97;;;;;;;25.12;59.16;100756.55;126590;1098;101810;-81
2023/08/17 06:14:14;;;;;;;11.03;5.50;;;;;;;25.23;59.33;100756.33;126882;1098;104268;-91
2023/08/17 06:17:17;;;;;;;11.67;5.53;;;;;;;25.30;58.62;100757.97;127288;1098;118613;-82
2023/08/17 06:20:09;;;;;;;12.23;5.60;;;;;;;25.42;58.69;100757.72;125200;1099;104192;-83
2023/08/17 06:22:56;;;;;;;9.40;4.50;;;;;;;25.51;57.77;100755.73;126712;1098;101766;-78
2023/08/17 06:25:29;;;;;;;9.60;4.90;;;;;;;25.60;57.53;100753.75;125596;1099;104207;-80
2023/08/17 06:28:18;;;;;;;8.37;4.67;;;;;;;25.68;57.34;100753.58;126511;1098;101880;-84
2023/08/17 06:31:12;;;;;;;13.20;4.80;;;;;;;25.75;57.29;100762.37;127714;1098;101985;-79
2023/08/17 06:34:09;;;;;;;8.83;4.80;;;;;;;25.82;56.90;100754.13;126731;1098;101794;-86
2023/08/17 06:41:13;;;;;;;;;;;;;;;;;;;;;
2023/08/17 06:44:44;;;;;;;9.10;5.20;;;;;;;26.19;56.06;100750.59;125300;1102;101863;-80
2023/08/17 06:47:36;;;;;;;7.70;4.97;;;;;;;26.35;55.36;100758.23;125856;1105;118162;-84
2023/08/17 06:50:11;;;;;;;10.97;5.00;;;;;;;26.47;55.67;100763.30;126138;1102;101672;-80
2023/08/17 06:53:07;;;;;;;12.40;5.10;;;;;;;26.54;54.85;100764.05;126980;1098;101588;-81
2023/08/17 06:55:54;;;;;;;8.73;4.83;;;;;;;26.61;54.83;100762.07;126929;1098;101768;-87
2023/08/17 07:05:58;;;;;;;13.83;5.27;;;;;;;26.99;53.47;100750.28;126394;1098;101861;-77
2023/08/17 07:09:20;;;;;;;7.40;4.63;;;;;;;27.13;54.19;100762.45;125940;1102;101783;-81
2023/08/17 07:12:07;;;;;;;12.50;5.30;;;;;;;27.28;53.55;100759.31;125607;1102;101952;-81
2023/08/17 07:14:51;;;;;;;8.70;4.60;;;;;;;27.43;54.00;100749.93;125762;1102;101688;-85
2023/08/17 07:17:57;;;;;;;;;;;;;;;;;;;;;
2023/08/17 07:21:28;;;;;;;;;;;;;;;;;;;;;
2023/08/17 07:24:25;;;;;;;18.00;5.30;;;;;;;28.29;51.77;100755.27;125695;1105;104176;-81
2023/08/17 07:27:19;;;;;;;11.27;5.00;;;;;;;28.44;51.32;100750.30;125809;1102;102266;-80
2023/08/17 07:34:08;;;;;;;6.70;4.67;;;;;;;28.55;51.26;100752.59;126481;1099;104201;-85
2023/08/17 07:37:32;;;;;;;9.33;5.20;;;;;;;28.61;51.01;100752.42;125584;1103;101842;-81
2023/08/17 07:40:43;;;;;;;;;;;;;;;;;;;;;
2023/08/17 07:44:13;;;;;;;8.93;5.13;;;;;;;28.91;50.21;100739.64;125792;1102;104265;-81
2023/08/17 07:47:18;;;;;;;;;;;;;;;;;;;;;
2023/08/17 07:50:25;;;;;;;10.63;4.90;;;;;;;29.15;50.30;100742.36;125461;1102;102258;-79
2023/08/17 07:56:44;;;;;;;10.33;5.37;;;;;;;29.36;49.60;100730.77;113211;1103;104483;-77
2023/08/17 07:59:30;;;;;;;8.37;4.93;;;;;;;29.39;48.96;100730.64;125316;1105;104329;-80
2023/08/17 08:02:21;;;;;;;9.07;5.03;;;;;;;29.39;49.25;100737.88;124401;1102;104265;-74
2023/08/17 08:05:15;;;;;;;;;;;;;;;;;;;;;
2023/08/17 08:08:25;;;;;;;14.90;5.17;;;;;;;29.46;48.42;100728.57;125459;1102;104434;-81
2023/08/17 08:11:34;;;;;;;8.13;5.23;;;;;;;29.57;48.01;100733.55;125246;1102;101823;-82
2023/08/17 08:14:48;;;;;;;9.23;5.20;;;;;;;29.72;48.00;100727.53;124815;1102;102140;-79
2023/08/17 08:18:13;;;;;;;;;;;;;;;;;;;;;
2023/08/17 08:21:32;;;;;;;;;;;;;;;;;;;;;
2023/08/17 08:24:16;;;;;;;13.00;5.50;;;;;;;29.85;47.17;100711.70;124634;1102;102048;-81
2023/08/17 08:31:20;;;;;;;9.77;5.53;;;;;;;29.73;46.36;100721.20;125234;1102;101889;-81
2023/08/17 08:34:22;;;;;;;;;;;;;;;;;;;;;
2023/08/17 08:37:12;;;;;;;;;;;;;;;29.97;46.54;100715.74;125650;1102;102186;-79
2023/08/17 08:40:45;;;;;;;8.53;5.47;;;;;;;30.03;46.11;100723.60;126540;1101;101675;-84
2023/08/17 08:44:14;;;;;;;8.10;5.10;;;;;;;29.98;45.89;100722.02;125161;1102;104230;-79
2023/08/17 08:47:46;;;;;;;10.63;5.47;;;;;;;29.92;45.98;100715.94;125554;1105;101862;-76
2023/08/17 08:54:02;;;;;;;10.30;5.20;;;;;;;30.26;46.15;100710.91;126354;1100;102152;-77
2023/08/17 08:57:10;;;;;;;8.83;5.23;;;;;;;30.42;45.38;100703.92;125865;1102;101842;-79
2023/08/17 09:00:10;;;;;;;10.73;5.30;;;;;;;30.54;45.30;100707.02;125874;1100;101915;-78
2023/08/17 09:03:21;;;;;;;7.17;4.97;;;;;;;30.54;44.56;100705.22;125877;1102;102027;-79
2023/08/17 09:05:59;;;;;;;11.70;5.10;;;;;;;30.68;44.47;100703.70;126958;1101;101773;-78
2023/08/17 09:08:50;;;;;;;9.75;5.40;;;;;;;30.80;44.22;100704.02;125725;1102;102013;-77
2023/08/17 09:11:58;;;;;;;7.92;5.15;;;;;;;30.88;43.73;100697.38;126732;1100;102039;-81
2023/08/17 09:14:59;;;;;;;9.37;5.30;;;;;;;30.84;43.61;100693.95;126627;1101;101809;-82
2023/08/17 09:17:46;;;;;;;9.20;5.20;;;;;;;30.85;43.35;100697.52;125866;1102;104184;-83
2023/08/17 09:21:00;;;;;;;6.83;5.20;;;;;;;30.91;43.32;100691.83;125940;1101;104200;-83
2023/08/17 09:27:46;;;;;;;7.53;5.00;;;;;;;30.91;42.91;100695.40;124625;1105;102095;-80
2023/08/17 09:30:35;;;;;;;10.17;5.17;;;;;;;30.97;42.65;100687.02;126220;1101;104175;-84
2023/08/17 09:33:41;;;;;;;10.93;5.30;;;;;;;31.14;42.35;100691.66;126222;1102;101696;-82
2023/08/17 09:36:37;;;;;;;10.60;5.60;;;;;;;31.19;42.30;100686.89;125178;1102;101790;-79
2023/08/17 09:39:37;;;;;;;11.30;4.80;;;;;;;31.28;42.10;100684.71;125784;1101;104443;-79
2023/08/17 09:42:22;;;;;;;10.67;5.13;;;;;;;31.30;41.41;100685.51;125184;1102;104323;-82
2023/08/17 09:45:02;;;;;;;10.50;5.43;;;;;;;31.36;41.55;100682.50;124846;1102;104089;-78
2023/08/17 09:47:39;;;;;;;9.17;4.87;;;;;;;31.51;41.67;100684.47;124391;1102;102707;-76
2023/08/17 09:50:11;;;;;;;8.77;5.00;;;;;;;31.56;41.33;100675.27;124765;1102;102417;-77
2023/08/17 09:53:00;;;;;;;11.07;5.07;;;;;;;31.52;40.50;100678.11;124768;1102;102344;-80
2023/08/17 09:55:45;;;;;;;10.33;4.87;;;;;;;31.55;40.42;100671.66;126165;1102;104126;-80
2023/08/17 09:58:23;;;;;;;12.40;4.57;;;;;;;31.56;40.17;100678.86;125482;1102;102031;-80
2023/08/17 10:00:58;;;;;;;6.97;4.67;;;;;;;31.57;39.77;100677.91;124759;1102;104278;-81
2023/08/17 10:03:37;;;;;;;7.10;4.73;;;;;;;31.57;39.58;100671.59;126533;1101;101785;-84
2023/08/17 10:06:51;;;;;;;;;;;;;;;;;;;;;
2023/08/17 10:09:44;;;;;;;8.27;4.87;;;;;;;31.58;38.91;100678.78;125359;1102;104283;-83
2023/08/17 10:12:37;;;;;;;14.07;5.13;;;;;;;31.64;39.17;100665.78;125460;1102;104182;-81
2023/08/17 10:15:19;;;;;;;13.40;4.90;;;;;;;31.67;39.27;100659.34;127075;1101;101600;-79
2023/08/17 10:18:21;;;;;;;8.53;4.67;;;;;;;31.82;38.81;100663.09;125840;1102;101804;-75
2023/08/17 10:21:22;;;;;;;6.53;5.23;;;;;;;31.99;38.77;100662.23;125806;1101;101984;-78
2023/08/17 10:24:07;;;;;;;8.93;5.20;;;;;;;32.17;38.71;100658.61;125151;1102;106744;-79
2023/08/17 10:26:48;;;;;;;9.47;5.00;;;;;;;32.24;38.48;100654.63;126205;1101;101846;-79
2023/08/17 10:29:27;;;;;;;9.63;5.17;;;;;;;32.23;37.65;100647.43;126830;1101;101698;-82
2023/08/17 10:32:10;;;;;;;9.65;5.30;;;;;;;32.19;37.24;100650.38;126245;1101;104188;-84
2023/08/17 10:34:53;;;;;;;9.80;5.27;;;;;;;32.15;37.26;100646.97;125916;1102;102247;-79
2023/08/17 10:37:31;;;;;;;8.00;4.80;;;;;;;32.10;36.96;100640.91;126192;1102;104217;-82
2023/08/17 10:40:40;;;;;;;8.00;5.30;;;;;;;32.15;36.97;100646.06;126733;1102;101852;-82
2023/08/17 10:43:28;;;;;;;11.03;5.03;;;;;;;32.18;37.11;100630.52;125360;1102;104182;-82
2023/08/17 10:46:17;;;;;;;9.03;5.27;;;;;;;32.19;37.45;100632.25;125815;1105;101811;-82
2023/08/17 10:49:11;;;;;;;9.27;5.43;;;;;;;32.21;37.08;100630.36;125236;1102;104272;-82
2023/08/17 10:52:21;;;;;;;;;;;;;;;;;;;;;
2023/08/17 10:55:09;;;;;;;10.43;5.43;;;;;;;32.25;36.86;100631.92;126339;1101;102310;-79
2023/08/17 10:57:49;;;;;;;7.53;4.97;;;;;;;32.20;36.47;100636.73;126046;1101;102083;-81
2023/08/17 11:00:36;;;;;;;7.23;4.80;;;;;;;32.23;36.64;100631.14;126605;1102;101804;-79
2023/08/17 11:03:10;;;;;;;;;;;;;;;32.36;36.80;100628.64;125370;1102;101937;-78
2023/08/17 11:05:53;;;;;;;8.40;4.90;;;;;;;32.45;36.49;100627.28;125541;1101;104235;-82
2023/08/17 11:09:06;;;;;;;8.10;5.07;;;;;;;32.52;36.25;100627.82;125354;1102;101793;-78
2023/08/17 11:12:10;;;;;;;8.20;4.67;;;;;;;32.54;35.77;100632.22;125234;1102;101828;-79
2023/08/17 11:15:14;;;;;;;7.20;4.57;;;;;;;32.51;35.31;100629.67;125133;1102;101995;-79
2023/08/17 11:18:48;;;;;;;;;;;;;;;;;;;;;
2023/08/17 11:21:34;;;;;;;10.53;5.20;;;;;;;32.74;34.86;100628.45;124277;1102;102124;-74
2023/08/17 11:24:47;;;;;;;7.55;4.85;;;;;;;32.72;34.90;100626.77;126033;1101;102030;-82
2023/08/17 11:27:52;;;;;;;6.60;4.67;;;;;;;32.72;34.63;100615.91;126303;1101;102363;-82
2023/08/17 11:31:14;;;;;;;9.10;4.90;;;;;;;32.88;34.81;100616.82;126014;1101;104194;-86
2023/08/17 11:34:08;;;;;;;6.83;4.93;;;;;;;32.85;33.86;100611.55;125686;1101;101939;-73
2023/08/17 11:36:50;;;;;;;5.47;4.40;;;;;;;32.83;34.24;100613.45;124146;1102;104271;-77
2023/08/17 11:39:41;;;;;;;7.53;4.70;;;;;;;32.80;34.21;100610.91;124224;1102;103657;-74
2023/08/17 11:42:19;;;;;;;7.80;4.97;;;;;;;32.75;34.45;100615.73;124444;1101;104201;-73
2023/08/17 11:44:53;;;;;;;11.27;5.20;;;;;;;32.69;34.28;100611.50;124286;1102;101901;-72
2023/08/17 11:47:26;;;;;;;9.87;4.80;;;;;;;32.71;34.45;100601.45;124347;1102;103231;-74
2023/08/17 11:50:04;;;;;;;7.10;4.57;;;;;;;32.81;34.48;100598.23;124531;1102;104277;-77
2023/08/17 11:52:58;;;;;;;9.20;5.10;;;;;;;32.83;33.98;100596.29;125209;1102;102280;-79
2023/08/17 11:55:41;;;;;;;7.87;5.10;;;;;;;32.84;34.18;100607.08;124479;1102;104188;-74
2023/08/17 11:58:19;;;;;;;9.27;5.20;;;;;;;32.86;34.08;100596.98;124972;1102;104179;-79
2023/08/17 12:00:55;;;;;;;8.10;5.20;;;;;;;32.88;33.92;100600.52;124746;1102;104316;-76
2023/08/17 12:03:29;;;;;;;8.50;4.60;;;;;;;32.98;34.22;100595.43;124572;1102;102173;-77
2023/08/17 12:06:02;;;;;;;6.80;4.47;;;;;;;33.05;33.93;100598.67;124553;1102;104112;-75
2023/08/17 12:08:36;;;;;;;6.67;4.80;;;;;;;33.04;34.24;100599.66;124441;1102;104302;-75
2023/08/17 12:11:10;;;;;;;9.67;5.40;;;;;;;33.04;34.40;100589.64;124643;1102;101908;-77
2023/08/17 12:13:55;;;;;;;5.97;4.80;;;;;;;33.07;34.44;100594.91;125601;1101;101928;-78
2023/08/17 12:16:35;;;;;;;10.77;5.27;;;;;;;33.12;34.32;100591.92;126567;1101;101660;-76
2023/08/17 12:19:10;;;;;;;9.73;4.57;;;;;;;33.14;33.88;100593.61;124507;1102;104238;-74
2023/08/17 12:25:00;;;;;;;10.07;4.80;;;;;;;33.16;33.59;100577.20;126070;1102;101894;-77
2023/08/17 12:27:37;;;;;;;10.30;4.77;;;;;;;33.16;33.62;100588.08;124361;1102;101937;-75
2023/08/17 12:30:46;;;;;;;10.90;5.23;;;;;;;33.15;33.66;100583.59;124299;1102;101966;-75
2023/08/17 12:33:33;;;;;;;7.50;4.60;;;;;;;33.20;33.87;100589.67;124399;1102;101925;-76
2023/08/17 12:36:21;;;;;;;8.23;4.87;;;;;;;33.24;33.73;100580.38;124702;1102;104176;-77
2023/08/17 12:38:59;;;;;;;7.57;5.00;;;;;;;33.31;34.00;100579.04;124815;1102;104213;-76
2023/08/17 12:41:45;;;;;;;7.37;4.87;;;;;;;33.30;33.53;100569.15;125316;1102;104224;-81
2023/08/17 12:44:48;;;;;;;9.70;5.20;;;;;;;33.35;33.40;100573.42;125241;1102;104175;-78
2023/08/17 12:48:29;;;;;;;;;;;;;;;;;;;;;
2023/08/17 12:51:25;;;;;;;;;;;;;;;;;;;;;
2023/08/17 12:54:06;;;;;;;7.97;4.90;;;;;;;33.29;33.13;100566.52;124233;1105;102232;-78
2023/08/17 12:57:05;;;;;;;7.07;4.77;;;;;;;33.31;32.81;100579.04;124125;1105;104201;-78
2023/08/17 13:00:00;;;;;;;8.27;4.70;;;;;;;33.30;32.98;100568.25;125926;1102;104182;-79
2023/08/17 13:03:04;;;;;;;11.47;4.50;;;;;;;33.27;32.94;100563.89;124621;1102;102325;-78
2023/08/17 13:05:58;;;;;;;7.80;4.90;;;;;;;33.26;32.93;100569.41;125521;1101;101810;-77
2023/08/17 13:08:41;;;;;;;11.90;4.47;;;;;;;33.19;32.20;100571.59;124923;1102;102000;-77
2023/08/17 13:11:22;;;;;;;9.33;4.47;;;;;;;33.16;32.68;100566.33;125971;1101;102805;-80
2023/08/17 13:20:54;;;;;;;10.30;4.90;;;;;;;33.13;32.50;100556.50;125827;1101;104179;-77